sensor_id;sensor_type;location;lat;lon;timestamp;pressure;altitude;pressure_sealevel;temperature;humidity
13209;BME280;6669;42.678;23.332;2023-05-21T00:00:38;94391.84;;;14.34;100.00
13209;BME280;6669;42.678;23.332;2023-05-21T00:03:07;94389.59;;;14.31;100.00
13209;BME280;6669;42.678;23.332;2023-05-21T00:05:42;94385.81;;;14.20;100.00
13209;BME280;6669;42.678;23.332;2023-05-21T00:08:14;94383.56;;;14.17;100.00
13209;BME280;6669;42.678;23.332;2023-05-21T00:10:42;94385.19;;;14.12;100.00
13209;BME280;6669;42.678;23.332;2023-05-21T00:13:10;94387.19;;;14.10;100.00
13209;BME280;6669;42.678;23.332;2023-05-21T00:15:38;94373.28;;;14.02;100.00
13209;BME280;6669;42.678;23.332;2023-05-21T00:18:06;94369.25;;;13.93;100.00
13209;BME280;6669;42.678;23.332;2023-05-21T00:20:34;94369.69;;;13.90;100.00
13209;BME280;6669;42.678;23.332;2023-05-21T00:23:02;94376.53;;;13.91;100.00
13209;BME280;6669;42.678;23.332;2023-05-21T00:25:32;94371.88;;;13.93;100.00
13209;BME280;6669;42.678;23.332;2023-05-21T00:28:00;94374.91;;;13.90;100.00
13209;BME280;6669;42.678;23.332;2023-05-21T00:30:28;94373.28;;;13.82;100.00
13209;BME280;6669;42.678;23.332;2023-05-21T00:32:56;94375.47;;;13.79;100.00
13209;BME280;6669;42.678;23.332;2023-05-21T00:35:28;94382.91;;;13.82;100.00
13209;BME280;6669;42.678;23.332;2023-05-21T00:37:56;94371.88;;;13.80;100.00
13209;BME280;6669;42.678;23.332;2023-05-21T00:40:25;94375.84;;;13.76;100.00
13209;BME280;6669;42.678;23.332;2023-05-21T00:42:54;94373.47;;;13.81;100.00
13209;BME280;6669;42.678;23.332;2023-05-21T00:45:22;94365.59;;;13.67;100.00
13209;BME280;6669;42.678;23.332;2023-05-21T00:47:51;94365.75;;;13.52;100.00
13209;BME280;6669;42.678;23.332;2023-05-21T00:50:21;94363.72;;;13.41;100.00
13209;BME280;6669;42.678;23.332;2023-05-21T00:52:49;94365.09;;;13.37;100.00
13209;BME280;6669;42.678;23.332;2023-05-21T00:55:18;94367.72;;;13.37;100.00
13209;BME280;6669;42.678;23.332;2023-05-21T00:57:47;94366.13;;;13.43;100.00
13209;BME280;6669;42.678;23.332;2023-05-21T01:00:17;94359.69;;;13.45;100.00
13209;BME280;6669;42.678;23.332;2023-05-21T01:02:46;94368.38;;;13.52;100.00
13209;BME280;6669;42.678;23.332;2023-05-21T01:05:15;94365.97;;;13.51;100.00
13209;BME280;6669;42.678;23.332;2023-05-21T01:07:43;94360.53;;;13.59;100.00
13209;BME280;6669;42.678;23.332;2023-05-21T01:10:12;94361.38;;;13.60;100.00
13209;BME280;6669;42.678;23.332;2023-05-21T01:12:43;94357.94;;;13.59;100.00
13209;BME280;6669;42.678;23.332;2023-05-21T01:15:12;94358.97;;;13.71;100.00
13209;BME280;6669;42.678;23.332;2023-05-21T01:17:42;94356.94;;;13.60;100.00
13209;BME280;6669;42.678;23.332;2023-05-21T01:20:11;94351.72;;;13.60;100.00
13209;BME280;6669;42.678;23.332;2023-05-21T01:25:11;94348.31;;;13.53;100.00
13209;BME280;6669;42.678;23.332;2023-05-21T01:27:40;94352.31;;;13.55;100.00
13209;BME280;6669;42.678;23.332;2023-05-21T01:30:09;94339.38;;;13.34;100.00
13209;BME280;6669;42.678;23.332;2023-05-21T01:32:43;94346.47;;;13.47;100.00
13209;BME280;6669;42.678;23.332;2023-05-21T01:35:15;94337.03;;;13.46;100.00
13209;BME280;6669;42.678;23.332;2023-05-21T01:37:47;94343.44;;;13.43;100.00
13209;BME280;6669;42.678;23.332;2023-05-21T01:40:28;94336.78;;;13.34;100.00
13209;BME280;6669;42.678;23.332;2023-05-21T01:42:58;94338.59;;;13.40;100.00
13209;BME280;6669;42.678;23.332;2023-05-21T01:45:27;94338.84;;;13.52;100.00
13209;BME280;6669;42.678;23.332;2023-05-21T01:47:58;94341.69;;;13.57;100.00
13209;BME280;6669;42.678;23.332;2023-05-21T01:50:26;94345.09;;;13.57;100.00
13209;BME280;6669;42.678;23.332;2023-05-21T01:52:57;94346.06;;;13.56;100.00
13209;BME280;6669;42.678;23.332;2023-05-21T01:55:28;94340.63;;;13.51;100.00
13209;BME280;6669;42.678;23.332;2023-05-21T01:57:57;94342.47;;;13.57;100.00
13209;BME280;6669;42.678;23.332;2023-05-21T02:00:28;94345.28;;;13.56;100.00
13209;BME280;6669;42.678;23.332;2023-05-21T02:02:58;94331.44;;;13.62;100.00
13209;BME280;6669;42.678;23.332;2023-05-21T02:05:26;94339.06;;;13.57;100.00
13209;BME280;6669;42.678;23.332;2023-05-21T02:07:54;94337.03;;;13.46;100.00
13209;BME280;6669;42.678;23.332;2023-05-21T02:10:22;94331.59;;;13.47;100.00
13209;BME280;6669;42.678;23.332;2023-05-21T02:12:52;94334.63;;;13.44;100.00
13209;BME280;6669;42.678;23.332;2023-05-21T02:15:19;94330.97;;;13.38;100.00
13209;BME280;6669;42.678;23.332;2023-05-21T02:17:48;94326.75;;;13.37;100.00
13209;BME280;6669;42.678;23.332;2023-05-21T02:20:17;94326.38;;;13.40;100.00
13209;BME280;6669;42.678;23.332;2023-05-21T02:22:46;94323.16;;;13.45;100.00
13209;BME280;6669;42.678;23.332;2023-05-21T02:25:20;94331.53;;;13.34;100.00
13209;BME280;6669;42.678;23.332;2023-05-21T02:27:49;94332.91;;;13.23;100.00
13209;BME280;6669;42.678;23.332;2023-05-21T02:30:20;94329.28;;;13.24;100.00
13209;BME280;6669;42.678;23.332;2023-05-21T02:32:48;94326.41;;;13.05;100.00
13209;BME280;6669;42.678;23.332;2023-05-21T02:35:16;94316.50;;;12.94;100.00
13209;BME280;6669;42.678;23.332;2023-05-21T02:37:44;94331.19;;;12.95;100.00
13209;BME280;6669;42.678;23.332;2023-05-21T02:40:12;94324.16;;;12.96;100.00
13209;BME280;6669;42.678;23.332;2023-05-21T02:42:40;94329.75;;;12.92;100.00
13209;BME280;6669;42.678;23.332;2023-05-21T02:45:09;94320.69;;;12.82;100.00
13209;BME280;6669;42.678;23.332;2023-05-21T02:47:39;94320.50;;;12.83;100.00
13209;BME280;6669;42.678;23.332;2023-05-21T02:50:08;94319.66;;;12.76;100.00
13209;BME280;6669;42.678;23.332;2023-05-21T02:52:36;94320.78;;;12.60;100.00
13209;BME280;6669;42.678;23.332;2023-05-21T02:55:05;94309.06;;;12.49;100.00
13209;BME280;6669;42.678;23.332;2023-05-21T02:57:33;94322.09;;;12.49;100.00
13209;BME280;6669;42.678;23.332;2023-05-21T03:00:01;94311.47;;;12.51;100.00
13209;BME280;6669;42.678;23.332;2023-05-21T03:02:30;94317.69;;;12.50;100.00
13209;BME280;6669;42.678;23.332;2023-05-21T03:05:00;94318.34;;;12.58;100.00
13209;BME280;6669;42.678;23.332;2023-05-21T03:07:28;94311.53;;;12.57;100.00
13209;BME280;6669;42.678;23.332;2023-05-21T03:09:56;94321.97;;;12.57;100.00
13209;BME280;6669;42.678;23.332;2023-05-21T03:12:24;94326.16;;;12.58;100.00
13209;BME280;6669;42.678;23.332;2023-05-21T03:14:52;94327.19;;;12.57;100.00
13209;BME280;6669;42.678;23.332;2023-05-21T03:17:22;94322.78;;;12.65;100.00
13209;BME280;6669;42.678;23.332;2023-05-21T03:19:50;94330.84;;;12.70;100.00
13209;BME280;6669;42.678;23.332;2023-05-21T03:22:19;94323.97;;;12.62;100.00
13209;BME280;6669;42.678;23.332;2023-05-21T03:24:47;94324.06;;;12.75;100.00
13209;BME280;6669;42.678;23.332;2023-05-21T03:27:15;94325.84;;;12.75;100.00
13209;BME280;6669;42.678;23.332;2023-05-21T03:29:43;94325.69;;;12.77;100.00
13209;BME280;6669;42.678;23.332;2023-05-21T03:32:12;94324.72;;;12.84;100.00
13209;BME280;6669;42.678;23.332;2023-05-21T03:34:40;94329.34;;;12.89;100.00
13209;BME280;6669;42.678;23.332;2023-05-21T03:37:08;94327.50;;;12.83;100.00
13209;BME280;6669;42.678;23.332;2023-05-21T03:39:37;94331.34;;;12.87;100.00
13209;BME280;6669;42.678;23.332;2023-05-21T03:42:06;94336.97;;;12.90;100.00
13209;BME280;6669;42.678;23.332;2023-05-21T03:44:34;94330.81;;;12.98;100.00
13209;BME280;6669;42.678;23.332;2023-05-21T03:47:02;94335.06;;;13.06;100.00
13209;BME280;6669;42.678;23.332;2023-05-21T03:49:30;94330.66;;;13.13;100.00
13209;BME280;6669;42.678;23.332;2023-05-21T03:51:57;94330.28;;;13.23;100.00
13209;BME280;6669;42.678;23.332;2023-05-21T03:54:25;94328.47;;;13.23;100.00
13209;BME280;6669;42.678;23.332;2023-05-21T03:56:55;94325.88;;;13.23;100.00
13209;BME280;6669;42.678;23.332;2023-05-21T03:59:23;94325.91;;;13.30;100.00
13209;BME280;6669;42.678;23.332;2023-05-21T04:01:51;94335.72;;;13.28;100.00
13209;BME280;6669;42.678;23.332;2023-05-21T04:04:19;94323.47;;;13.22;100.00
13209;BME280;6669;42.678;23.332;2023-05-21T04:06:49;94321.25;;;13.19;100.00
13209;BME280;6669;42.678;23.332;2023-05-21T04:09:17;94329.06;;;13.19;100.00
13209;BME280;6669;42.678;23.332;2023-05-21T04:11:45;94330.31;;;13.30;100.00
13209;BME280;6669;42.678;23.332;2023-05-21T04:14:14;94326.69;;;13.24;100.00
13209;BME280;6669;42.678;23.332;2023-05-21T04:16:42;94336.13;;;13.25;100.00
13209;BME280;6669;42.678;23.332;2023-05-21T04:19:14;94321.53;;;13.37;100.00
13209;BME280;6669;42.678;23.332;2023-05-21T04:21:42;94322.69;;;13.35;100.00
13209;BME280;6669;42.678;23.332;2023-05-21T04:24:11;94336.81;;;13.47;100.00
13209;BME280;6669;42.678;23.332;2023-05-21T04:26:39;94322.56;;;13.43;100.00
13209;BME280;6669;42.678;23.332;2023-05-21T04:29:08;94332.81;;;13.51;100.00
13209;BME280;6669;42.678;23.332;2023-05-21T04:31:38;94325.00;;;13.65;100.00
13209;BME280;6669;42.678;23.332;2023-05-21T04:34:06;94328.84;;;13.69;100.00
13209;BME280;6669;42.678;23.332;2023-05-21T04:36:34;94330.25;;;13.78;100.00
13209;BME280;6669;42.678;23.332;2023-05-21T04:39:02;94334.09;;;13.82;100.00
13209;BME280;6669;42.678;23.332;2023-05-21T04:41:31;94335.28;;;13.93;100.00
13209;BME280;6669;42.678;23.332;2023-05-21T04:43:59;94341.97;;;14.09;100.00
13209;BME280;6669;42.678;23.332;2023-05-21T04:46:27;94339.72;;;14.06;100.00
13209;BME280;6669;42.678;23.332;2023-05-21T04:48:57;94336.09;;;14.14;100.00
13209;BME280;6669;42.678;23.332;2023-05-21T04:51:28;94327.25;;;14.15;100.00
13209;BME280;6669;42.678;23.332;2023-05-21T04:53:56;94336.13;;;14.27;100.00
13209;BME280;6669;42.678;23.332;2023-05-21T04:56:25;94330.28;;;14.25;100.00
13209;BME280;6669;42.678;23.332;2023-05-21T04:58:53;94334.50;;;14.39;100.00
13209;BME280;6669;42.678;23.332;2023-05-21T05:01:21;94323.22;;;14.39;100.00
13209;BME280;6669;42.678;23.332;2023-05-21T05:03:49;94333.09;;;14.50;100.00
13209;BME280;6669;42.678;23.332;2023-05-21T05:06:19;94335.91;;;14.49;100.00
13209;BME280;6669;42.678;23.332;2023-05-21T05:08:48;94333.25;;;14.62;100.00
13209;BME280;6669;42.678;23.332;2023-05-21T05:11:16;94341.91;;;14.63;100.00
13209;BME280;6669;42.678;23.332;2023-05-21T05:13:44;94338.72;;;14.74;100.00
13209;BME280;6669;42.678;23.332;2023-05-21T05:16:12;94334.28;;;14.75;100.00
13209;BME280;6669;42.678;23.332;2023-05-21T05:18:40;94337.09;;;14.80;100.00
13209;BME280;6669;42.678;23.332;2023-05-21T05:21:08;94336.88;;;14.81;100.00
13209;BME280;6669;42.678;23.332;2023-05-21T05:23:37;94329.81;;;14.88;100.00
13209;BME280;6669;42.678;23.332;2023-05-21T05:26:05;94340.84;;;15.04;100.00
13209;BME280;6669;42.678;23.332;2023-05-21T05:28:33;94336.59;;;15.10;100.00
13209;BME280;6669;42.678;23.332;2023-05-21T05:31:01;94344.25;;;15.11;100.00
13209;BME280;6669;42.678;23.332;2023-05-21T05:33:31;94333.53;;;15.19;100.00
13209;BME280;6669;42.678;23.332;2023-05-21T05:35:59;94339.75;;;15.25;100.00
13209;BME280;6669;42.678;23.332;2023-05-21T05:38:27;94331.25;;;15.36;100.00
13209;BME280;6669;42.678;23.332;2023-05-21T05:41:02;94344.34;;;15.36;100.00
13209;BME280;6669;42.678;23.332;2023-05-21T05:43:30;94338.88;;;15.45;100.00
13209;BME280;6669;42.678;23.332;2023-05-21T05:45:58;94329.38;;;15.50;100.00
13209;BME280;6669;42.678;23.332;2023-05-21T05:48:26;94336.81;;;15.53;100.00
13209;BME280;6669;42.678;23.332;2023-05-21T05:50:54;94324.94;;;15.51;100.00
13209;BME280;6669;42.678;23.332;2023-05-21T05:53:26;94325.72;;;15.58;100.00
13209;BME280;6669;42.678;23.332;2023-05-21T05:55:56;94323.31;;;15.57;100.00
13209;BME280;6669;42.678;23.332;2023-05-21T05:58:25;94326.06;;;15.68;100.00
13209;BME280;6669;42.678;23.332;2023-05-21T06:00:56;94331.63;;;15.79;100.00
13209;BME280;6669;42.678;23.332;2023-05-21T06:03:25;94329.00;;;15.85;100.00
13209;BME280;6669;42.678;23.332;2023-05-21T06:05:54;94329.06;;;16.04;100.00
13209;BME280;6669;42.678;23.332;2023-05-21T06:08:22;94331.97;;;16.21;100.00
13209;BME280;6669;42.678;23.332;2023-05-21T06:10:50;94332.56;;;16.23;100.00
13209;BME280;6669;42.678;23.332;2023-05-21T06:13:19;94322.06;;;16.23;100.00
13209;BME280;6669;42.678;23.332;2023-05-21T06:15:47;94329.72;;;16.25;100.00
13209;BME280;6669;42.678;23.332;2023-05-21T06:18:15;94313.97;;;16.25;100.00
13209;BME280;6669;42.678;23.332;2023-05-21T06:20:43;94328.81;;;16.38;100.00
13209;BME280;6669;42.678;23.332;2023-05-21T06:23:11;94325.09;;;16.45;100.00
13209;BME280;6669;42.678;23.332;2023-05-21T06:25:39;94332.59;;;16.42;100.00
13209;BME280;6669;42.678;23.332;2023-05-21T06:28:07;94331.53;;;16.49;100.00
13209;BME280;6669;42.678;23.332;2023-05-21T06:30:37;94324.16;;;16.40;100.00
13209;BME280;6669;42.678;23.332;2023-05-21T06:33:05;94329.19;;;16.41;100.00
13209;BME280;6669;42.678;23.332;2023-05-21T06:35:33;94326.72;;;16.46;100.00
13209;BME280;6669;42.678;23.332;2023-05-21T06:38:03;94332.72;;;16.54;100.00
13209;BME280;6669;42.678;23.332;2023-05-21T06:40:31;94326.59;;;16.60;100.00
13209;BME280;6669;42.678;23.332;2023-05-21T06:42:59;94324.06;;;16.72;100.00
13209;BME280;6669;42.678;23.332;2023-05-21T06:45:27;94320.97;;;16.75;100.00
13209;BME280;6669;42.678;23.332;2023-05-21T06:47:56;94321.44;;;16.72;100.00
13209;BME280;6669;42.678;23.332;2023-05-21T06:50:24;94323.94;;;16.85;100.00
13209;BME280;6669;42.678;23.332;2023-05-21T06:52:52;94316.63;;;16.87;100.00
13209;BME280;6669;42.678;23.332;2023-05-21T06:55:20;94316.22;;;17.09;100.00
13209;BME280;6669;42.678;23.332;2023-05-21T06:57:48;94322.94;;;17.23;100.00
13209;BME280;6669;42.678;23.332;2023-05-21T07:00:17;94317.50;;;17.18;100.00
13209;BME280;6669;42.678;23.332;2023-05-21T07:02:45;94325.09;;;17.26;100.00
13209;BME280;6669;42.678;23.332;2023-05-21T07:05:15;94315.06;;;17.23;100.00
13209;BME280;6669;42.678;23.332;2023-05-21T07:07:43;94301.00;;;17.29;100.00
13209;BME280;6669;42.678;23.332;2023-05-21T07:10:11;94310.41;;;17.37;100.00
13209;BME280;6669;42.678;23.332;2023-05-21T07:12:39;94299.75;;;17.51;100.00
13209;BME280;6669;42.678;23.332;2023-05-21T07:15:08;94299.09;;;17.55;100.00
13209;BME280;6669;42.678;23.332;2023-05-21T07:17:36;94300.00;;;17.61;100.00
13209;BME280;6669;42.678;23.332;2023-05-21T07:20:06;94300.50;;;17.70;100.00
13209;BME280;6669;42.678;23.332;2023-05-21T07:22:37;94295.09;;;17.64;100.00
13209;BME280;6669;42.678;23.332;2023-05-21T07:25:06;94300.50;;;17.81;100.00
13209;BME280;6669;42.678;23.332;2023-05-21T07:27:34;94306.88;;;18.04;100.00
13209;BME280;6669;42.678;23.332;2023-05-21T07:30:02;94302.09;;;18.13;100.00
13209;BME280;6669;42.678;23.332;2023-05-21T07:32:31;94306.56;;;18.36;100.00
13209;BME280;6669;42.678;23.332;2023-05-21T07:34:59;94313.47;;;18.61;100.00
13209;BME280;6669;42.678;23.332;2023-05-21T07:37:28;94314.13;;;18.68;100.00
13209;BME280;6669;42.678;23.332;2023-05-21T07:39:58;94306.00;;;18.58;100.00
13209;BME280;6669;42.678;23.332;2023-05-21T07:42:26;94320.22;;;18.69;100.00
13209;BME280;6669;42.678;23.332;2023-05-21T07:44:54;94315.06;;;18.74;100.00
13209;BME280;6669;42.678;23.332;2023-05-21T07:47:22;94305.66;;;18.66;100.00
13209;BME280;6669;42.678;23.332;2023-05-21T07:49:50;94309.75;;;18.86;100.00
13209;BME280;6669;42.678;23.332;2023-05-21T07:52:18;94306.78;;;19.06;100.00
13209;BME280;6669;42.678;23.332;2023-05-21T07:54:46;94308.56;;;19.29;100.00
13209;BME280;6669;42.678;23.332;2023-05-21T07:57:15;94300.84;;;19.39;100.00
13209;BME280;6669;42.678;23.332;2023-05-21T07:59:43;94306.50;;;19.60;100.00
13209;BME280;6669;42.678;23.332;2023-05-21T08:02:11;94309.78;;;19.67;100.00
13209;BME280;6669;42.678;23.332;2023-05-21T08:04:39;94308.69;;;19.80;100.00
13209;BME280;6669;42.678;23.332;2023-05-21T08:07:08;94300.75;;;19.92;100.00
13209;BME280;6669;42.678;23.332;2023-05-21T08:09:36;94309.97;;;20.06;100.00
13209;BME280;6669;42.678;23.332;2023-05-21T08:12:07;94316.94;;;20.13;94.78
13209;BME280;6669;42.678;23.332;2023-05-21T08:14:37;94307.16;;;20.13;90.90
13209;BME280;6669;42.678;23.332;2023-05-21T08:17:05;94314.38;;;20.35;91.50
13209;BME280;6669;42.678;23.332;2023-05-21T08:19:33;94322.38;;;20.57;92.58
13209;BME280;6669;42.678;23.332;2023-05-21T08:22:01;94312.75;;;20.51;87.75
13209;BME280;6669;42.678;23.332;2023-05-21T08:24:29;94308.13;;;20.58;83.16
13209;BME280;6669;42.678;23.332;2023-05-21T08:26:57;94309.06;;;20.69;86.21
13209;BME280;6669;42.678;23.332;2023-05-21T08:29:25;94310.75;;;20.75;85.00
13209;BME280;6669;42.678;23.332;2023-05-21T08:31:54;94301.63;;;20.83;79.44
13209;BME280;6669;42.678;23.332;2023-05-21T08:34:23;94303.31;;;20.72;83.84
13209;BME280;6669;42.678;23.332;2023-05-21T08:36:51;94313.00;;;20.49;76.89
13209;BME280;6669;42.678;23.332;2023-05-21T08:39:19;94304.13;;;20.38;81.61
13209;BME280;6669;42.678;23.332;2023-05-21T08:41:50;94303.63;;;20.58;86.08
13209;BME280;6669;42.678;23.332;2023-05-21T08:44:23;94309.97;;;20.74;79.78
13209;BME280;6669;42.678;23.332;2023-05-21T08:46:53;94306.25;;;20.76;77.62
13209;BME280;6669;42.678;23.332;2023-05-21T08:49:26;94308.25;;;21.07;78.60
13209;BME280;6669;42.678;23.332;2023-05-21T08:51:57;94304.22;;;21.22;75.27
13209;BME280;6669;42.678;23.332;2023-05-21T08:54:26;94306.31;;;21.42;72.85
13209;BME280;6669;42.678;23.332;2023-05-21T08:56:55;94308.19;;;21.47;69.38
13209;BME280;6669;42.678;23.332;2023-05-21T08:59:25;94303.22;;;21.50;72.72
13209;BME280;6669;42.678;23.332;2023-05-21T09:01:55;94303.28;;;21.55;74.69
13209;BME280;6669;42.678;23.332;2023-05-21T09:04:25;94299.88;;;21.55;73.95
13209;BME280;6669;42.678;23.332;2023-05-21T09:06:54;94322.47;;;21.46;71.65
13209;BME280;6669;42.678;23.332;2023-05-21T09:09:31;94312.94;;;21.00;73.09
13209;BME280;6669;42.678;23.332;2023-05-21T09:11:59;94308.97;;;20.81;75.44
13209;BME280;6669;42.678;23.332;2023-05-21T09:14:27;94306.72;;;20.89;75.77
13209;BME280;6669;42.678;23.332;2023-05-21T09:16:57;94313.63;;;21.13;76.22
13209;BME280;6669;42.678;23.332;2023-05-21T09:19:25;94313.47;;;21.02;72.00
13209;BME280;6669;42.678;23.332;2023-05-21T09:22:00;94304.84;;;21.07;71.14
13209;BME280;6669;42.678;23.332;2023-05-21T09:24:29;94302.56;;;21.16;71.26
13209;BME280;6669;42.678;23.332;2023-05-21T09:27:05;94316.38;;;21.45;71.44
13209;BME280;6669;42.678;23.332;2023-05-21T09:29:33;94304.41;;;21.37;71.02
13209;BME280;6669;42.678;23.332;2023-05-21T09:32:07;94304.34;;;21.32;70.69
13209;BME280;6669;42.678;23.332;2023-05-21T09:34:37;94306.56;;;21.18;70.38
13209;BME280;6669;42.678;23.332;2023-05-21T09:37:06;94300.03;;;21.26;66.36
13209;BME280;6669;42.678;23.332;2023-05-21T09:39:52;94298.50;;;21.52;65.58
13209;BME280;6669;42.678;23.332;2023-05-21T09:42:20;94299.53;;;21.51;66.26
13209;BME280;6669;42.678;23.332;2023-05-21T09:44:49;94305.06;;;21.50;64.56
13209;BME280;6669;42.678;23.332;2023-05-21T09:47:21;94306.56;;;21.63;64.40
13209;BME280;6669;42.678;23.332;2023-05-21T09:49:49;94308.19;;;21.47;63.92
13209;BME280;6669;42.678;23.332;2023-05-21T09:52:23;94292.53;;;21.40;63.52
13209;BME280;6669;42.678;23.332;2023-05-21T09:54:53;94277.28;;;21.47;62.87
13209;BME280;6669;42.678;23.332;2023-05-21T09:57:24;94288.34;;;21.44;63.21
13209;BME280;6669;42.678;23.332;2023-05-21T09:59:53;94292.84;;;21.44;63.11
13209;BME280;6669;42.678;23.332;2023-05-21T10:02:23;94286.56;;;21.50;64.09
13209;BME280;6669;42.678;23.332;2023-05-21T10:04:54;94286.69;;;21.87;62.85
13209;BME280;6669;42.678;23.332;2023-05-21T10:07:24;94280.16;;;22.00;60.15
13209;BME280;6669;42.678;23.332;2023-05-21T10:09:54;94289.19;;;21.99;60.50
13209;BME280;6669;42.678;23.332;2023-05-21T10:12:23;94278.91;;;22.08;60.80
13209;BME280;6669;42.678;23.332;2023-05-21T10:14:59;94282.84;;;22.05;61.20
13209;BME280;6669;42.678;23.332;2023-05-21T10:17:29;94274.69;;;22.07;62.66
13209;BME280;6669;42.678;23.332;2023-05-21T10:19:58;94278.78;;;21.93;59.54
13209;BME280;6669;42.678;23.332;2023-05-21T10:22:27;94269.31;;;21.97;59.64
13209;BME280;6669;42.678;23.332;2023-05-21T10:24:55;94280.47;;;22.04;62.14
13209;BME280;6669;42.678;23.332;2023-05-21T10:27:25;94264.97;;;22.18;61.43
13209;BME280;6669;42.678;23.332;2023-05-21T10:29:58;94265.44;;;22.47;59.36
13209;BME280;6669;42.678;23.332;2023-05-21T10:32:31;94262.66;;;22.64;59.51
13209;BME280;6669;42.678;23.332;2023-05-21T10:35:00;94265.13;;;22.81;61.40
13209;BME280;6669;42.678;23.332;2023-05-21T10:37:28;94259.56;;;22.83;60.30
13209;BME280;6669;42.678;23.332;2023-05-21T10:39:56;94263.63;;;23.01;60.61
13209;BME280;6669;42.678;23.332;2023-05-21T10:45:33;94269.94;;;22.90;60.10
13209;BME280;6669;42.678;23.332;2023-05-21T10:48:15;94263.53;;;22.85;60.93
13209;BME280;6669;42.678;23.332;2023-05-21T10:51:03;94271.53;;;22.43;61.58
13209;BME280;6669;42.678;23.332;2023-05-21T10:53:43;94268.47;;;22.24;61.34
13209;BME280;6669;42.678;23.332;2023-05-21T10:56:20;94265.66;;;22.08;62.33
13209;BME280;6669;42.678;23.332;2023-05-21T11:01:32;94258.97;;;22.33;63.39
13209;BME280;6669;42.678;23.332;2023-05-21T11:04:03;94268.50;;;22.29;64.22
13209;BME280;6669;42.678;23.332;2023-05-21T11:06:32;94267.19;;;21.99;65.18
13209;BME280;6669;42.678;23.332;2023-05-21T11:09:01;94265.50;;;21.87;67.02
13209;BME280;6669;42.678;23.332;2023-05-21T11:11:39;94253.53;;;21.52;66.78
13209;BME280;6669;42.678;23.332;2023-05-21T11:14:25;94273.50;;;21.43;67.83
13209;BME280;6669;42.678;23.332;2023-05-21T11:16:54;94262.41;;;21.41;70.30
13209;BME280;6669;42.678;23.332;2023-05-21T11:19:31;94254.13;;;21.32;67.35
13209;BME280;6669;42.678;23.332;2023-05-21T11:22:04;94264.28;;;21.46;68.06
13209;BME280;6669;42.678;23.332;2023-05-21T11:24:36;94251.47;;;22.19;67.05
13209;BME280;6669;42.678;23.332;2023-05-21T11:27:04;94243.84;;;22.66;65.26
13209;BME280;6669;42.678;23.332;2023-05-21T11:29:43;94242.50;;;22.63;65.40
13209;BME280;6669;42.678;23.332;2023-05-21T11:32:13;94241.91;;;22.51;64.47
13209;BME280;6669;42.678;23.332;2023-05-21T11:34:47;94229.31;;;22.31;63.13
13209;BME280;6669;42.678;23.332;2023-05-21T11:37:30;94237.78;;;22.28;66.59
13209;BME280;6669;42.678;23.332;2023-05-21T11:40:17;94240.31;;;22.12;67.59
13209;BME280;6669;42.678;23.332;2023-05-21T11:42:50;94246.84;;;21.72;67.96
13209;BME280;6669;42.678;23.332;2023-05-21T11:45:20;94240.69;;;21.61;69.67
13209;BME280;6669;42.678;23.332;2023-05-21T11:47:49;94251.00;;;21.40;74.07
13209;BME280;6669;42.678;23.332;2023-05-21T11:50:20;94237.75;;;21.35;71.25
13209;BME280;6669;42.678;23.332;2023-05-21T11:52:49;94231.09;;;21.33;71.22
13209;BME280;6669;42.678;23.332;2023-05-21T11:55:21;94236.97;;;21.35;75.50
13209;BME280;6669;42.678;23.332;2023-05-21T11:57:52;94230.63;;;21.36;76.45
13209;BME280;6669;42.678;23.332;2023-05-21T12:00:21;94232.16;;;21.32;75.40
13209;BME280;6669;42.678;23.332;2023-05-21T12:02:50;94229.97;;;21.23;72.85
13209;BME280;6669;42.678;23.332;2023-05-21T12:05:21;94239.63;;;21.13;74.80
13209;BME280;6669;42.678;23.332;2023-05-21T12:07:49;94234.53;;;21.06;78.92
13209;BME280;6669;42.678;23.332;2023-05-21T12:10:20;94212.06;;;20.81;83.86
13209;BME280;6669;42.678;23.332;2023-05-21T12:12:48;94219.13;;;20.58;96.89
13209;BME280;6669;42.678;23.332;2023-05-21T12:15:24;94228.63;;;20.37;100.00
13209;BME280;6669;42.678;23.332;2023-05-21T12:17:53;94221.53;;;20.21;92.19
13209;BME280;6669;42.678;23.332;2023-05-21T12:20:24;94207.31;;;20.05;98.13
13209;BME280;6669;42.678;23.332;2023-05-21T12:22:54;94219.53;;;20.11;99.35
13209;BME280;6669;42.678;23.332;2023-05-21T12:25:23;94232.81;;;20.16;99.15
13209;BME280;6669;42.678;23.332;2023-05-21T12:27:51;94216.91;;;20.11;100.00
13209;BME280;6669;42.678;23.332;2023-05-21T12:30:24;94220.91;;;20.14;100.00
13209;BME280;6669;42.678;23.332;2023-05-21T12:32:52;94227.16;;;20.07;100.00
13209;BME280;6669;42.678;23.332;2023-05-21T12:35:21;94219.06;;;20.14;100.00
13209;BME280;6669;42.678;23.332;2023-05-21T12:37:51;94214.41;;;20.04;100.00
13209;BME280;6669;42.678;23.332;2023-05-21T12:40:20;94209.53;;;20.13;100.00
13209;BME280;6669;42.678;23.332;2023-05-21T12:42:48;94206.50;;;20.21;100.00
13209;BME280;6669;42.678;23.332;2023-05-21T12:45:17;94198.84;;;20.20;94.72
13209;BME280;6669;42.678;23.332;2023-05-21T12:47:48;94204.66;;;20.22;99.48
13209;BME280;6669;42.678;23.332;2023-05-21T12:50:22;94206.25;;;20.23;100.00
13209;BME280;6669;42.678;23.332;2023-05-21T12:52:54;94205.41;;;20.17;96.72
13209;BME280;6669;42.678;23.332;2023-05-21T12:55:23;94201.84;;;20.29;98.00
13209;BME280;6669;42.678;23.332;2023-05-21T12:58:00;94201.13;;;20.33;100.00
13209;BME280;6669;42.678;23.332;2023-05-21T13:00:30;94206.47;;;20.38;100.00
13209;BME280;6669;42.678;23.332;2023-05-21T13:02:59;94205.81;;;20.31;100.00
13209;BME280;6669;42.678;23.332;2023-05-21T13:05:27;94211.19;;;20.36;97.94
13209;BME280;6669;42.678;23.332;2023-05-21T13:07:57;94201.91;;;20.34;100.00
13209;BME280;6669;42.678;23.332;2023-05-21T13:10:25;94202.16;;;20.32;99.53
13209;BME280;6669;42.678;23.332;2023-05-21T13:12:53;94198.53;;;20.38;100.00